sensor_id;sensor_type;location;lat;lon;timestamp;P1;durP1;ratioP1;P2;durP2;ratioP2
64757;SDS011;51193;45.588;5.376;2022-10-26T00:00:52;17.58;;;5.60;;
64757;SDS011;51193;45.588;5.376;2022-10-26T00:03:41;18.15;;;4.97;;
64757;SDS011;51193;45.588;5.376;2022-10-26T00:06:34;15.85;;;5.32;;
64757;SDS011;51193;45.588;5.376;2022-10-26T00:09:02;9.60;;;4.18;;
64757;SDS011;51193;45.588;5.376;2022-10-26T00:11:30;14.18;;;4.60;;
64757;SDS011;51193;45.588;5.376;2022-10-26T00:16:55;14.20;;;4.43;;
64757;SDS011;51193;45.588;5.376;2022-10-26T00:19:33;16.40;;;4.43;;
64757;SDS011;51193;45.588;5.376;2022-10-26T00:22:00;14.20;;;3.72;;
64757;SDS011;51193;45.588;5.376;2022-10-26T00:24:30;16.02;;;4.00;;
64757;SDS011;51193;45.588;5.376;2022-10-26T00:26:58;18.08;;;4.35;;
64757;SDS011;51193;45.588;5.376;2022-10-26T00:30:04;18.23;;;4.90;;
64757;SDS011;51193;45.588;5.376;2022-10-26T00:32:34;13.00;;;4.20;;
64757;SDS011;51193;45.588;5.376;2022-10-26T00:35:14;17.15;;;4.07;;
64757;SDS011;51193;45.588;5.376;2022-10-26T00:37:54;15.27;;;4.05;;
64757;SDS011;51193;45.588;5.376;2022-10-26T00:40:31;11.57;;;4.03;;
64757;SDS011;51193;45.588;5.376;2022-10-26T00:43:02;13.48;;;4.25;;
64757;SDS011;51193;45.588;5.376;2022-10-26T00:45:29;14.32;;;4.25;;
64757;SDS011;51193;45.588;5.376;2022-10-26T00:48:26;15.98;;;4.25;;
64757;SDS011;51193;45.588;5.376;2022-10-26T00:51:54;14.48;;;4.68;;
64757;SDS011;51193;45.588;5.376;2022-10-26T00:58:08;12.52;;;4.15;;
64757;SDS011;51193;45.588;5.376;2022-10-26T01:01:10;18.25;;;4.45;;
64757;SDS011;51193;45.588;5.376;2022-10-26T01:03:44;17.60;;;4.72;;
64757;SDS011;51193;45.588;5.376;2022-10-26T01:06:48;13.77;;;3.90;;
64757;SDS011;51193;45.588;5.376;2022-10-26T01:09:46;12.13;;;5.00;;
64757;SDS011;51193;45.588;5.376;2022-10-26T01:12:22;14.70;;;4.47;;
64757;SDS011;51193;45.588;5.376;2022-10-26T01:15:16;19.67;;;5.18;;
64757;SDS011;51193;45.588;5.376;2022-10-26T01:17:58;15.68;;;5.07;;
64757;SDS011;51193;45.588;5.376;2022-10-26T01:30:43;14.73;;;4.45;;
64757;SDS011;51193;45.588;5.376;2022-10-26T01:33:26;24.52;;;5.07;;
64757;SDS011;51193;45.588;5.376;2022-10-26T01:36:46;19.80;;;5.65;;
64757;SDS011;51193;45.588;5.376;2022-10-26T01:39:27;17.20;;;5.53;;
64757;SDS011;51193;45.588;5.376;2022-10-26T01:42:20;17.05;;;5.68;;
64757;SDS011;51193;45.588;5.376;2022-10-26T01:44:59;16.85;;;5.70;;
64757;SDS011;51193;45.588;5.376;2022-10-26T01:50:07;12.10;;;5.22;;
64757;SDS011;51193;45.588;5.376;2022-10-26T01:52:39;18.45;;;5.93;;
64757;SDS011;51193;45.588;5.376;2022-10-26T01:58:06;19.50;;;5.22;;
64757;SDS011;51193;45.588;5.376;2022-10-26T02:01:29;18.38;;;5.60;;
64757;SDS011;51193;45.588;5.376;2022-10-26T02:04:31;18.50;;;5.57;;
64757;SDS011;51193;45.588;5.376;2022-10-26T02:13:45;15.88;;;5.05;;
64757;SDS011;51193;45.588;5.376;2022-10-26T02:22:16;17.13;;;5.63;;
64757;SDS011;51193;45.588;5.376;2022-10-26T02:24:52;16.60;;;5.03;;
64757;SDS011;51193;45.588;5.376;2022-10-26T02:27:24;20.75;;;5.32;;
64757;SDS011;51193;45.588;5.376;2022-10-26T02:30:04;13.40;;;4.95;;
64757;SDS011;51193;45.588;5.376;2022-10-26T02:32:33;17.40;;;5.50;;
64757;SDS011;51193;45.588;5.376;2022-10-26T02:35:28;20.77;;;5.32;;
64757;SDS011;51193;45.588;5.376;2022-10-26T02:37:59;14.65;;;5.75;;
64757;SDS011;51193;45.588;5.376;2022-10-26T02:40:32;18.83;;;6.07;;
64757;SDS011;51193;45.588;5.376;2022-10-26T02:43:07;13.80;;;5.70;;
64757;SDS011;51193;45.588;5.376;2022-10-26T02:45:48;19.85;;;5.55;;
64757;SDS011;51193;45.588;5.376;2022-10-26T02:48:18;16.95;;;5.35;;
64757;SDS011;51193;45.588;5.376;2022-10-26T02:59:35;20.88;;;5.15;;
64757;SDS011;51193;45.588;5.376;2022-10-26T03:05:26;23.42;;;5.40;;
64757;SDS011;51193;45.588;5.376;2022-10-26T03:08:01;21.63;;;4.78;;
64757;SDS011;51193;45.588;5.376;2022-10-26T03:10:30;22.27;;;5.40;;
64757;SDS011;51193;45.588;5.376;2022-10-26T03:13:08;17.38;;;4.80;;
64757;SDS011;51193;45.588;5.376;2022-10-26T03:15:38;17.80;;;5.32;;
64757;SDS011;51193;45.588;5.376;2022-10-26T03:18:05;20.60;;;5.20;;
64757;SDS011;51193;45.588;5.376;2022-10-26T03:20:37;22.60;;;5.20;;
64757;SDS011;51193;45.588;5.376;2022-10-26T03:23:05;23.55;;;5.50;;
64757;SDS011;51193;45.588;5.376;2022-10-26T03:25:33;20.15;;;4.43;;
64757;SDS011;51193;45.588;5.376;2022-10-26T03:28:04;22.42;;;5.72;;
64757;SDS011;51193;45.588;5.376;2022-10-26T03:30:42;25.90;;;5.30;;
64757;SDS011;51193;45.588;5.376;2022-10-26T03:33:14;23.50;;;4.45;;
64757;SDS011;51193;45.588;5.376;2022-10-26T03:35:52;26.10;;;5.53;;
64757;SDS011;51193;45.588;5.376;2022-10-26T03:38:22;19.88;;;5.40;;
64757;SDS011;51193;45.588;5.376;2022-10-26T03:41:09;26.30;;;5.03;;
64757;SDS011;51193;45.588;5.376;2022-10-26T03:43:37;22.55;;;4.70;;
64757;SDS011;51193;45.588;5.376;2022-10-26T03:46:14;18.63;;;4.57;;
64757;SDS011;51193;45.588;5.376;2022-10-26T03:48:55;19.38;;;5.13;;
64757;SDS011;51193;45.588;5.376;2022-10-26T03:51:48;20.08;;;4.55;;
64757;SDS011;51193;45.588;5.376;2022-10-26T03:54:29;18.87;;;5.83;;
64757;SDS011;51193;45.588;5.376;2022-10-26T03:56:58;22.77;;;4.65;;
64757;SDS011;51193;45.588;5.376;2022-10-26T03:59:26;23.33;;;4.75;;
64757;SDS011;51193;45.588;5.376;2022-10-26T04:01:55;38.67;;;5.35;;
64757;SDS011;51193;45.588;5.376;2022-10-26T04:04:27;30.98;;;5.43;;
64757;SDS011;51193;45.588;5.376;2022-10-26T04:07:16;23.08;;;4.90;;
64757;SDS011;51193;45.588;5.376;2022-10-26T04:09:57;23.30;;;4.93;;
64757;SDS011;51193;45.588;5.376;2022-10-26T04:12:27;23.80;;;4.97;;
64757;SDS011;51193;45.588;5.376;2022-10-26T04:14:55;28.50;;;5.00;;
64757;SDS011;51193;45.588;5.376;2022-10-26T04:17:46;24.05;;;4.88;;
64757;SDS011;51193;45.588;5.376;2022-10-26T04:20:38;22.92;;;5.10;;
64757;SDS011;51193;45.588;5.376;2022-10-26T04:23:21;22.10;;;4.60;;
64757;SDS011;51193;45.588;5.376;2022-10-26T04:26:14;21.95;;;5.47;;
64757;SDS011;51193;45.588;5.376;2022-10-26T04:28:51;27.33;;;5.22;;
64757;SDS011;51193;45.588;5.376;2022-10-26T04:31:40;21.92;;;4.82;;
64757;SDS011;51193;45.588;5.376;2022-10-26T04:34:24;25.20;;;4.72;;
64757;SDS011;51193;45.588;5.376;2022-10-26T04:36:59;29.45;;;5.00;;
64757;SDS011;51193;45.588;5.376;2022-10-26T04:39:40;30.17;;;5.00;;
64757;SDS011;51193;45.588;5.376;2022-10-26T04:42:28;24.33;;;5.03;;
64757;SDS011;51193;45.588;5.376;2022-10-26T04:45:18;24.65;;;4.78;;
64757;SDS011;51193;45.588;5.376;2022-10-26T04:50:34;22.05;;;5.20;;
64757;SDS011;51193;45.588;5.376;2022-10-26T04:53:03;33.92;;;6.03;;
64757;SDS011;51193;45.588;5.376;2022-10-26T04:55:41;30.50;;;4.40;;
64757;SDS011;51193;45.588;5.376;2022-10-26T04:58:10;28.00;;;6.00;;
64757;SDS011;51193;45.588;5.376;2022-10-26T05:00:45;32.42;;;5.43;;
64757;SDS011;51193;45.588;5.376;2022-10-26T05:03:52;21.20;;;5.20;;
64757;SDS011;51193;45.588;5.376;2022-10-26T05:06:34;27.20;;;5.38;;
64757;SDS011;51193;45.588;5.376;2022-10-26T05:09:08;20.40;;;4.95;;
64757;SDS011;51193;45.588;5.376;2022-10-26T05:11:37;24.17;;;5.30;;
64757;SDS011;51193;45.588;5.376;2022-10-26T05:14:12;20.98;;;5.15;;
64757;SDS011;51193;45.588;5.376;2022-10-26T05:16:43;27.35;;;5.28;;
64757;SDS011;51193;45.588;5.376;2022-10-26T05:19:17;34.50;;;5.60;;
64757;SDS011;51193;45.588;5.376;2022-10-26T05:22:09;23.55;;;4.40;;
64757;SDS011;51193;45.588;5.376;2022-10-26T05:24:48;21.85;;;4.90;;
64757;SDS011;51193;45.588;5.376;2022-10-26T05:27:39;21.73;;;4.05;;
64757;SDS011;51193;45.588;5.376;2022-10-26T05:30:17;19.73;;;4.60;;
64757;SDS011;51193;45.588;5.376;2022-10-26T05:32:59;22.23;;;3.88;;
64757;SDS011;51193;45.588;5.376;2022-10-26T05:35:31;23.95;;;4.35;;
64757;SDS011;51193;45.588;5.376;2022-10-26T05:38:08;25.33;;;4.20;;
64757;SDS011;51193;45.588;5.376;2022-10-26T05:40:58;24.60;;;4.05;;
64757;SDS011;51193;45.588;5.376;2022-10-26T05:43:29;16.58;;;3.47;;
64757;SDS011;51193;45.588;5.376;2022-10-26T05:46:03;21.17;;;4.63;;
64757;SDS011;51193;45.588;5.376;2022-10-26T05:49:06;20.88;;;3.95;;
64757;SDS011;51193;45.588;5.376;2022-10-26T05:51:35;19.00;;;4.05;;
64757;SDS011;51193;45.588;5.376;2022-10-26T05:54:09;22.30;;;4.32;;
64757;SDS011;51193;45.588;5.376;2022-10-26T05:56:39;27.40;;;4.80;;
64757;SDS011;51193;45.588;5.376;2022-10-26T05:59:16;19.80;;;4.72;;
64757;SDS011;51193;45.588;5.376;2022-10-26T06:05:25;22.27;;;4.50;;
64757;SDS011;51193;45.588;5.376;2022-10-26T06:08:14;24.60;;;4.53;;
64757;SDS011;51193;45.588;5.376;2022-10-26T06:11:07;22.35;;;4.80;;
64757;SDS011;51193;45.588;5.376;2022-10-26T06:13:41;22.50;;;4.35;;
64757;SDS011;51193;45.588;5.376;2022-10-26T06:22:03;23.98;;;4.50;;
64757;SDS011;51193;45.588;5.376;2022-10-26T06:30:56;17.50;;;4.35;;
64757;SDS011;51193;45.588;5.376;2022-10-26T06:33:39;27.35;;;4.45;;
64757;SDS011;51193;45.588;5.376;2022-10-26T06:39:18;24.15;;;4.05;;
64757;SDS011;51193;45.588;5.376;2022-10-26T06:41:51;23.15;;;4.45;;
64757;SDS011;51193;45.588;5.376;2022-10-26T06:44:28;27.23;;;4.13;;
64757;SDS011;51193;45.588;5.376;2022-10-26T06:47:19;22.70;;;4.57;;
64757;SDS011;51193;45.588;5.376;2022-10-26T06:53:32;22.65;;;4.30;;
64757;SDS011;51193;45.588;5.376;2022-10-26T06:56:45;20.05;;;4.55;;
64757;SDS011;51193;45.588;5.376;2022-10-26T07:02:29;14.20;;;4.18;;
64757;SDS011;51193;45.588;5.376;2022-10-26T07:04:56;15.13;;;3.35;;
64757;SDS011;51193;45.588;5.376;2022-10-26T07:07:46;19.67;;;3.90;;
64757;SDS011;51193;45.588;5.376;2022-10-26T07:10:20;17.40;;;3.65;;
64757;SDS011;51193;45.588;5.376;2022-10-26T07:13:06;23.25;;;3.78;;
64757;SDS011;51193;45.588;5.376;2022-10-26T07:15:39;22.83;;;4.35;;
64757;SDS011;51193;45.588;5.376;2022-10-26T07:18:07;17.23;;;3.90;;
64757;SDS011;51193;45.588;5.376;2022-10-26T07:21:02;21.27;;;4.50;;
64757;SDS011;51193;45.588;5.376;2022-10-26T07:23:37;22.80;;;5.18;;
64757;SDS011;51193;45.588;5.376;2022-10-26T07:26:28;17.40;;;4.22;;
64757;SDS011;51193;45.588;5.376;2022-10-26T07:29:32;17.35;;;5.07;;
64757;SDS011;51193;45.588;5.376;2022-10-26T07:32:03;19.38;;;4.60;;
64757;SDS011;51193;45.588;5.376;2022-10-26T07:35:00;25.98;;;4.75;;
64757;SDS011;51193;45.588;5.376;2022-10-26T07:37:36;21.48;;;4.40;;
64757;SDS011;51193;45.588;5.376;2022-10-26T07:40:18;16.38;;;4.30;;
64757;SDS011;51193;45.588;5.376;2022-10-26T07:43:04;15.38;;;4.20;;
64757;SDS011;51193;45.588;5.376;2022-10-26T07:45:36;25.35;;;4.35;;
64757;SDS011;51193;45.588;5.376;2022-10-26T07:48:20;23.95;;;5.07;;
64757;SDS011;51193;45.588;5.376;2022-10-26T07:51:12;18.13;;;4.15;;
64757;SDS011;51193;45.588;5.376;2022-10-26T07:53:38;20.15;;;4.35;;
64757;SDS011;51193;45.588;5.376;2022-10-26T07:56:13;22.17;;;5.05;;
64757;SDS011;51193;45.588;5.376;2022-10-26T07:58:39;23.15;;;4.38;;
64757;SDS011;51193;45.588;5.376;2022-10-26T08:01:13;21.20;;;4.13;;
64757;SDS011;51193;45.588;5.376;2022-10-26T08:03:39;22.40;;;4.28;;
64757;SDS011;51193;45.588;5.376;2022-10-26T08:06:06;22.38;;;3.88;;
64757;SDS011;51193;45.588;5.376;2022-10-26T08:08:35;23.83;;;4.10;;
64757;SDS011;51193;45.588;5.376;2022-10-26T08:11:02;13.52;;;3.40;;
64757;SDS011;51193;45.588;5.376;2022-10-26T08:13:28;19.35;;;4.25;;
64757;SDS011;51193;45.588;5.376;2022-10-26T08:15:58;16.50;;;3.50;;
64757;SDS011;51193;45.588;5.376;2022-10-26T08:18:25;15.45;;;3.83;;
64757;SDS011;51193;45.588;5.376;2022-10-26T08:20:51;17.98;;;3.72;;
64757;SDS011;51193;45.588;5.376;2022-10-26T08:23:17;20.42;;;4.30;;
64757;SDS011;51193;45.588;5.376;2022-10-26T08:25:42;18.75;;;3.85;;
64757;SDS011;51193;45.588;5.376;2022-10-26T08:28:08;14.07;;;3.40;;
64757;SDS011;51193;45.588;5.376;2022-10-26T08:30:33;18.95;;;3.67;;
64757;SDS011;51193;45.588;5.376;2022-10-26T08:33:03;20.58;;;3.70;;
64757;SDS011;51193;45.588;5.376;2022-10-26T08:35:31;18.75;;;3.90;;
64757;SDS011;51193;45.588;5.376;2022-10-26T08:37:57;21.88;;;4.47;;
64757;SDS011;51193;45.588;5.376;2022-10-26T08:40:27;22.90;;;3.92;;
64757;SDS011;51193;45.588;5.376;2022-10-26T08:45:40;22.65;;;4.30;;
64757;SDS011;51193;45.588;5.376;2022-10-26T08:48:14;19.80;;;4.22;;
64757;SDS011;51193;45.588;5.376;2022-10-26T08:56:00;13.95;;;3.55;;
64757;SDS011;51193;45.588;5.376;2022-10-26T08:58:39;18.05;;;3.95;;
64757;SDS011;51193;45.588;5.376;2022-10-26T09:03:43;17.48;;;3.80;;
64757;SDS011;51193;45.588;5.376;2022-10-26T09:06:15;20.45;;;3.92;;
64757;SDS011;51193;45.588;5.376;2022-10-26T09:09:07;15.65;;;3.80;;
64757;SDS011;51193;45.588;5.376;2022-10-26T09:14:20;21.88;;;3.63;;
64757;SDS011;51193;45.588;5.376;2022-10-26T09:25:18;16.30;;;3.80;;
64757;SDS011;51193;45.588;5.376;2022-10-26T09:27:46;19.80;;;3.97;;
64757;SDS011;51193;45.588;5.376;2022-10-26T09:30:16;13.95;;;3.55;;
64757;SDS011;51193;45.588;5.376;2022-10-26T09:33:03;14.95;;;3.17;;
64757;SDS011;51193;45.588;5.376;2022-10-26T09:35:46;15.35;;;3.45;;
64757;SDS011;51193;45.588;5.376;2022-10-26T09:43:27;17.98;;;3.60;;
64757;SDS011;51193;45.588;5.376;2022-10-26T09:45:59;19.00;;;4.05;;
64757;SDS011;51193;45.588;5.376;2022-10-26T09:50:59;19.42;;;3.80;;
64757;SDS011;51193;45.588;5.376;2022-10-26T09:53:24;19.95;;;3.92;;
64757;SDS011;51193;45.588;5.376;2022-10-26T09:55:53;19.65;;;4.22;;
64757;SDS011;51193;45.588;5.376;2022-10-26T09:58:29;20.67;;;3.65;;
64757;SDS011;51193;45.588;5.376;2022-10-26T10:00:58;23.17;;;3.67;;
64757;SDS011;51193;45.588;5.376;2022-10-26T10:03:30;15.63;;;3.80;;
64757;SDS011;51193;45.588;5.376;2022-10-26T10:08:42;12.98;;;3.30;;
64757;SDS011;51193;45.588;5.376;2022-10-26T10:11:12;13.02;;;3.22;;
64757;SDS011;51193;45.588;5.376;2022-10-26T10:13:39;17.27;;;4.03;;
64757;SDS011;51193;45.588;5.376;2022-10-26T10:16:18;20.23;;;3.35;;
64757;SDS011;51193;45.588;5.376;2022-10-26T10:18:53;17.42;;;3.50;;
64757;SDS011;51193;45.588;5.376;2022-10-26T10:21:20;15.48;;;3.78;;
64757;SDS011;51193;45.588;5.376;2022-10-26T10:23:47;12.20;;;3.50;;
64757;SDS011;51193;45.588;5.376;2022-10-26T10:26:16;15.60;;;3.60;;
64757;SDS011;51193;45.588;5.376;2022-10-26T10:28:41;13.35;;;3.15;;
64757;SDS011;51193;45.588;5.376;2022-10-26T10:31:42;11.45;;;3.13;;
64757;SDS011;51193;45.588;5.376;2022-10-26T10:34:01;17.73;;;3.50;;
64757;SDS011;51193;45.588;5.376;2022-10-26T10:36:39;18.80;;;3.90;;
64757;SDS011;51193;45.588;5.376;2022-10-26T10:39:04;11.88;;;3.42;;
64757;SDS011;51193;45.588;5.376;2022-10-26T10:41:49;20.95;;;3.95;;
64757;SDS011;51193;45.588;5.376;2022-10-26T10:46:49;17.23;;;3.80;;
64757;SDS011;51193;45.588;5.376;2022-10-26T10:49:25;17.15;;;3.35;;
64757;SDS011;51193;45.588;5.376;2022-10-26T10:51:52;10.77;;;3.75;;
64757;SDS011;51193;45.588;5.376;2022-10-26T10:54:22;16.30;;;3.72;;
64757;SDS011;51193;45.588;5.376;2022-10-26T10:57:06;17.80;;;3.90;;
64757;SDS011;51193;45.588;5.376;2022-10-26T11:02:45;18.00;;;3.95;;
64757;SDS011;51193;45.588;5.376;2022-10-26T11:05:26;18.63;;;3.17;;
64757;SDS011;51193;45.588;5.376;2022-10-26T11:11:32;19.15;;;3.90;;
64757;SDS011;51193;45.588;5.376;2022-10-26T11:13:58;13.65;;;3.50;;
64757;SDS011;51193;45.588;5.376;2022-10-26T11:16:34;12.65;;;3.20;;
64757;SDS011;51193;45.588;5.376;2022-10-26T11:19:06;18.10;;;3.30;;
64757;SDS011;51193;45.588;5.376;2022-10-26T11:21:36;15.02;;;3.15;;
64757;SDS011;51193;45.588;5.376;2022-10-26T11:24:03;11.35;;;3.05;;
64757;SDS011;51193;45.588;5.376;2022-10-26T11:29:18;18.83;;;3.78;;
64757;SDS011;51193;45.588;5.376;2022-10-26T11:40:18;15.80;;;3.33;;
64757;SDS011;51193;45.588;5.376;2022-10-26T11:42:48;12.93;;;3.33;;
64757;SDS011;51193;45.588;5.376;2022-10-26T11:45:36;15.70;;;3.47;;
64757;SDS011;51193;45.588;5.376;2022-10-26T11:50:51;14.57;;;3.95;;
64757;SDS011;51193;45.588;5.376;2022-10-26T11:56:22;14.93;;;3.45;;
64757;SDS011;51193;45.588;5.376;2022-10-26T11:58:55;13.57;;;3.40;;
64757;SDS011;51193;45.588;5.376;2022-10-26T12:01:21;16.90;;;3.47;;
64757;SDS011;51193;45.588;5.376;2022-10-26T12:03:48;19.05;;;3.90;;
64757;SDS011;51193;45.588;5.376;2022-10-26T12:06:18;14.80;;;3.30;;
64757;SDS011;51193;45.588;5.376;2022-10-26T12:08:49;13.85;;;3.28;;
64757;SDS011;51193;45.588;5.376;2022-10-26T12:11:35;11.40;;;3.30;;
64757;SDS011;51193;45.588;5.376;2022-10-26T12:19:31;13.55;;;3.90;;
64757;SDS011;51193;45.588;5.376;2022-10-26T12:21:58;14.55;;;3.40;;
64757;SDS011;51193;45.588;5.376;2022-10-26T12:24:25;14.68;;;3.55;;
64757;SDS011;51193;45.588;5.376;2022-10-26T12:27:00;13.55;;;3.58;;
64757;SDS011;51193;45.588;5.376;2022-10-26T12:29:29;13.43;;;3.55;;
64757;SDS011;51193;45.588;5.376;2022-10-26T12:31:55;13.88;;;3.35;;
64757;SDS011;51193;45.588;5.376;2022-10-26T12:34:56;14.73;;;3.05;;
64757;SDS011;51193;45.588;5.376;2022-10-26T12:37:18;14.70;;;3.67;;
64757;SDS011;51193;45.588;5.376;2022-10-26T12:39:47;14.52;;;3.65;;
64757;SDS011;51193;45.588;5.376;2022-10-26T12:52:26;13.77;;;3.42;;
64757;SDS011;51193;45.588;5.376;2022-10-26T12:57:45;10.93;;;3.42;;
64757;SDS011;51193;45.588;5.376;2022-10-26T13:00:17;12.60;;;3.50;;
64757;SDS011;51193;45.588;5.376;2022-10-26T13:08:03;14.15;;;3.53;;
64757;SDS011;51193;45.588;5.376;2022-10-26T13:10:32;13.43;;;3.75;;
64757;SDS011;51193;45.588;5.376;2022-10-26T13:12:59;15.77;;;3.90;;
64757;SDS011;51193;45.588;5.376;2022-10-26T13:15:27;13.18;;;4.28;;
64757;SDS011;51193;45.588;5.376;2022-10-26T13:20:27;17.08;;;3.67;;
64757;SDS011;51193;45.588;5.376;2022-10-26T13:22:54;14.48;;;3.67;;
64757;SDS011;51193;45.588;5.376;2022-10-26T13:25:29;13.13;;;4.18;;
64757;SDS011;51193;45.588;5.376;2022-10-26T13:28:05;12.98;;;3.53;;
64757;SDS011;51193;45.588;5.376;2022-10-26T13:30:51;14.50;;;3.53;;
64757;SDS011;51193;45.588;5.376;2022-10-26T13:33:18;14.45;;;3.90;;
64757;SDS011;51193;45.588;5.376;2022-10-26T13:35:47;18.60;;;3.75;;
64757;SDS011;51193;45.588;5.376;2022-10-26T13:38:17;13.65;;;3.58;;
64757;SDS011;51193;45.588;5.376;2022-10-26T13:40:46;14.80;;;3.85;;
64757;SDS011;51193;45.588;5.376;2022-10-26T13:43:18;18.63;;;3.63;;
64757;SDS011;51193;45.588;5.376;2022-10-26T13:45:48;13.63;;;3.42;;
64757;SDS011;51193;45.588;5.376;2022-10-26T13:48:17;15.80;;;4.10;;
64757;SDS011;51193;45.588;5.376;2022-10-26T13:53:22;19.95;;;3.90;;
64757;SDS011;51193;45.588;5.376;2022-10-26T13:56:02;14.32;;;4.13;;
64757;SDS011;51193;45.588;5.376;2022-10-26T13:58:35;16.80;;;3.72;;
64757;SDS011;51193;45.588;5.376;2022-10-26T14:03:45;18.70;;;3.53;;
64757;SDS011;51193;45.588;5.376;2022-10-26T14:06:21;11.57;;;3.42;;
64757;SDS011;51193;45.588;5.376;2022-10-26T14:08:52;17.55;;;4.53;;
64757;SDS011;51193;45.588;5.376;2022-10-26T14:11:21;13.52;;;3.45;;
64757;SDS011;51193;45.588;5.376;2022-10-26T14:13:53;12.40;;;3.58;;
64757;SDS011;51193;45.588;5.376;2022-10-26T14:16:19;16.95;;;3.78;;
64757;SDS011;51193;45.588;5.376;2022-10-26T14:18:51;15.88;;;3.67;;
64757;SDS011;51193;45.588;5.376;2022-10-26T14:21:18;14.82;;;3.47;;
64757;SDS011;51193;45.588;5.376;2022-10-26T14:26:26;19.55;;;3.92;;
64757;SDS011;51193;45.588;5.376;2022-10-26T14:28:58;16.10;;;3.95;;
64757;SDS011;51193;45.588;5.376;2022-10-26T14:31:26;11.93;;;3.28;;
64757;SDS011;51193;45.588;5.376;2022-10-26T14:33:54;11.25;;;3.88;;
64757;SDS011;51193;45.588;5.376;2022-10-26T14:36:25;15.30;;;4.32;;
64757;SDS011;51193;45.588;5.376;2022-10-26T14:38:57;18.65;;;4.07;;
64757;SDS011;51193;45.588;5.376;2022-10-26T14:41:29;16.27;;;4.10;;
64757;SDS011;51193;45.588;5.376;2022-10-26T14:43:58;13.95;;;4.22;;
64757;SDS011;51193;45.588;5.376;2022-10-26T14:46:24;18.80;;;5.18;;
64757;SDS011;51193;45.588;5.376;2022-10-26T14:48:56;14.25;;;3.72;;
64757;SDS011;51193;45.588;5.376;2022-10-26T14:51:27;16.40;;;4.32;;
64757;SDS011;51193;45.588;5.376;2022-10-26T14:53:57;20.45;;;4.15;;
64757;SDS011;51193;45.588;5.376;2022-10-26T14:56:29;17.85;;;4.72;;
64757;SDS011;51193;45.588;5.376;2022-10-26T14:59:36;21.35;;;4.85;;
64757;SDS011;51193;45.588;5.376;2022-10-26T15:01:58;13.43;;;3.85;;
64757;SDS011;51193;45.588;5.376;2022-10-26T15:04:32;13.55;;;3.42;;
64757;SDS011;51193;45.588;5.376;2022-10-26T15:09:43;11.57;;;3.83;;
64757;SDS011;51193;45.588;5.376;2022-10-26T15:12:26;12.95;;;3.63;;
64757;SDS011;51193;45.588;5.376;2022-10-26T15:14:55;16.75;;;4.90;;
64757;SDS011;51193;45.588;5.376;2022-10-26T15:17:35;18.83;;;4.75;;
64757;SDS011;51193;45.588;5.376;2022-10-26T15:20:04;16.73;;;4.10;;
64757;SDS011;51193;45.588;5.376;2022-10-26T15:22:31;13.75;;;4.28;;
64757;SDS011;51193;45.588;5.376;2022-10-26T15:24:59;18.95;;;4.63;;
64757;SDS011;51193;45.588;5.376;2022-10-26T15:27:27;14.57;;;4.40;;
64757;SDS011;51193;45.588;5.376;2022-10-26T15:30:07;15.55;;;4.05;;
64757;SDS011;51193;45.588;5.376;2022-10-26T15:32:33;17.70;;;4.65;;
64757;SDS011;51193;45.588;5.376;2022-10-26T15:35:19;19.35;;;4.43;;
64757;SDS011;51193;45.588;5.376;2022-10-26T15:37:48;16.90;;;4.00;;
64757;SDS011;51193;45.588;5.376;2022-10-26T15:40:15;12.00;;;4.00;;
64757;SDS011;51193;45.588;5.376;2022-10-26T15:42:41;9.57;;;4.10;;
64757;SDS011;51193;45.588;5.376;2022-10-26T15:45:22;15.55;;;4.00;;
64757;SDS011;51193;45.588;5.376;2022-10-26T15:47:50;16.77;;;4.82;;
64757;SDS011;51193;45.588;5.376;2022-10-26T15:50:21;15.52;;;4.85;;
64757;SDS011;51193;45.588;5.376;2022-10-26T15:52:48;15.15;;;4.35;;
64757;SDS011;51193;45.588;5.376;2022-10-26T15:55:14;18.38;;;4.65;;
64757;SDS011;51193;45.588;5.376;2022-10-26T15:57:41;18.10;;;4.55;;
64757;SDS011;51193;45.588;5.376;2022-10-26T16:00:06;16.25;;;4.80;;
64757;SDS011;51193;45.588;5.376;2022-10-26T16:02:37;19.70;;;5.18;;
64757;SDS011;51193;45.588;5.376;2022-10-26T16:05:06;17.98;;;4.45;;
64757;SDS011;51193;45.588;5.376;2022-10-26T16:07:32;14.95;;;4.35;;
64757;SDS011;51193;45.588;5.376;2022-10-26T16:09:58;15.63;;;3.95;;
64757;SDS011;51193;45.588;5.376;2022-10-26T16:12:23;16.73;;;4.18;;
64757;SDS011;51193;45.588;5.376;2022-10-26T16:14:51;15.38;;;4.28;;
64757;SDS011;51193;45.588;5.376;2022-10-26T16:17:21;13.30;;;4.47;;
64757;SDS011;51193;45.588;5.376;2022-10-26T16:19:50;12.63;;;4.00;;
64757;SDS011;51193;45.588;5.376;2022-10-26T16:25:48;20.17;;;4.40;;
64757;SDS011;51193;45.588;5.376;2022-10-26T16:28:40;23.52;;;8.93;;
64757;SDS011;51193;45.588;5.376;2022-10-26T21:03:48;20.52;;;4.85;;
64757;SDS011;51193;45.588;5.376;2022-10-26T21:06:41;21.55;;;3.70;;
64757;SDS011;51193;45.588;5.376;2022-10-26T21:10:01;19.58;;;4.22;;
64757;SDS011;51193;45.588;5.376;2022-10-26T21:13:24;12.82;;;4.47;;
64757;SDS011;51193;45.588;5.376;2022-10-26T21:24:15;13.80;;;4.00;;
